createdAt,value
2018-05-18T00:01:18.102Z,59.00
2018-05-18T00:03:45.701Z,59.30
2018-05-18T00:06:13.957Z,59.50
2018-05-18T00:08:41.563Z,59.50
2018-05-18T00:11:09.837Z,59.80
2018-05-18T00:13:37.370Z,59.80
2018-05-18T00:16:05.008Z,60.30
2018-05-18T00:18:32.521Z,60.10
2018-05-18T00:21:00.179Z,60.60
2018-05-18T00:23:27.720Z,60.60
2018-05-18T00:25:55.287Z,61.20
2018-05-18T00:28:22.934Z,60.80
2018-05-18T00:30:52.007Z,61.00
2018-05-18T00:33:19.528Z,61.00
2018-05-18T00:35:47.880Z,61.20
2018-05-18T00:38:15.542Z,61.10
2018-05-18T00:40:43.166Z,61.40
2018-05-18T00:43:11.444Z,61.60
2018-05-18T00:45:39.119Z,61.60
2018-05-18T00:48:06.757Z,61.80
2018-05-18T00:50:34.302Z,61.70
2018-05-18T00:53:01.911Z,61.90
2018-05-18T00:55:40.390Z,61.80
2018-05-18T00:58:07.884Z,62.10
2018-05-18T01:00:35.425Z,62.00
2018-05-18T01:03:02.971Z,62.30
2018-05-18T01:05:30.461Z,62.40
2018-05-18T01:07:58.748Z,62.40
2018-05-18T01:10:27.015Z,62.60
2018-05-18T01:12:54.537Z,62.50
2018-05-18T01:15:22.133Z,62.60
2018-05-18T01:17:49.658Z,63.50
2018-05-18T01:20:17.153Z,63.00
2018-05-18T01:22:44.667Z,62.90
2018-05-18T01:25:12.161Z,63.20
2018-05-18T01:27:40.541Z,63.50
2018-05-18T01:30:09.471Z,64.20
2018-05-18T01:32:37.039Z,63.90
2018-05-18T01:35:04.597Z,64.00
2018-05-18T01:37:32.977Z,64.20
2018-05-18T01:40:01.280Z,64.50
2018-05-18T01:42:29.561Z,64.60
2018-05-18T01:44:57.865Z,64.80
2018-05-18T01:47:25.515Z,64.70
2018-05-18T01:49:53.845Z,65.70
2018-05-18T01:52:21.395Z,65.10
2018-05-18T01:54:49.130Z,65.00
2018-05-18T01:57:16.674Z,65.10
2018-05-18T01:59:44.190Z,65.40
2018-05-18T02:02:12.454Z,65.40
2018-05-18T02:04:39.992Z,65.40
2018-05-18T02:07:07.505Z,65.50
2018-05-18T02:09:35.058Z,65.30
2018-05-18T02:12:02.567Z,65.60
2018-05-18T02:14:30.930Z,65.20
2018-05-18T02:16:58.445Z,65.20
2018-05-18T02:19:26.141Z,65.30
2018-05-18T02:21:53.799Z,65.20
2018-05-18T02:24:21.354Z,65.30
2018-05-18T02:26:49.641Z,65.10
2018-05-18T02:29:17.920Z,65.50
2018-05-18T02:31:46.924Z,65.10
2018-05-18T02:34:15.191Z,65.40
2018-05-18T02:36:42.921Z,65.30
2018-05-18T02:39:10.686Z,65.10
2018-05-18T02:41:38.333Z,65.50
2018-05-18T02:44:05.841Z,65.60
2018-05-18T02:46:33.441Z,66.80
2018-05-18T02:49:00.988Z,65.80
2018-05-18T02:51:28.496Z,65.90
2018-05-18T02:53:56.839Z,66.30
2018-05-18T02:56:24.451Z,66.30
2018-05-18T02:58:52.063Z,66.80
2018-05-18T03:01:20.332Z,67.00
2018-05-18T03:03:48.649Z,67.10
2018-05-18T03:06:16.908Z,67.50
2018-05-18T03:08:45.211Z,67.20
2018-05-18T03:11:13.480Z,67.30
2018-05-18T03:13:40.997Z,67.20
2018-05-18T03:16:08.531Z,67.30
2018-05-18T03:18:36.119Z,67.30
2018-05-18T03:21:04.486Z,67.30
2018-05-18T03:23:31.957Z,67.30
2018-05-18T03:25:59.575Z,67.40
2018-05-18T03:28:27.122Z,68.10
2018-05-18T03:30:54.823Z,67.50
2018-05-18T03:33:22.337Z,67.60
2018-05-18T03:35:49.957Z,67.30
2018-05-18T03:38:17.448Z,67.40
2018-05-18T03:40:44.944Z,68.00
2018-05-18T03:43:12.457Z,67.60
2018-05-18T03:45:40.719Z,67.10
2018-05-18T03:48:08.234Z,67.00
2018-05-18T03:50:35.777Z,67.20
2018-05-18T03:53:04.074Z,67.30
2018-05-18T03:55:32.335Z,67.40
2018-05-18T03:58:00.020Z,67.40
2018-05-18T04:00:28.282Z,67.50
2018-05-18T04:03:22.625Z,67.40
2018-05-18T04:06:02.889Z,67.60
2018-05-18T04:08:53.527Z,67.90
2018-05-18T04:11:21.454Z,67.80
2018-05-18T04:13:49.756Z,67.90
2018-05-18T04:16:17.259Z,67.90
2018-05-18T04:18:44.806Z,68.10
2018-05-18T04:21:12.363Z,68.30
2018-05-18T04:23:39.870Z,68.40
2018-05-18T04:26:07.405Z,68.80
2018-05-18T04:28:34.990Z,68.10
2018-05-18T04:31:03.293Z,68.50
2018-05-18T04:33:30.852Z,67.80
2018-05-18T04:35:59.298Z,68.00
2018-05-18T04:38:26.834Z,68.00
2018-05-18T04:40:54.411Z,67.90
2018-05-18T04:43:22.072Z,67.80
2018-05-18T04:45:49.661Z,67.60
2018-05-18T04:48:17.183Z,67.50
2018-05-18T04:50:44.795Z,67.50
2018-05-18T04:53:12.458Z,67.40
2018-05-18T04:55:40.780Z,67.30
2018-05-18T04:58:08.282Z,67.30
2018-05-18T05:00:35.989Z,66.90
2018-05-18T05:03:04.934Z,67.30
2018-05-18T05:05:32.678Z,66.60
2018-05-18T05:08:00.228Z,67.00
2018-05-18T05:10:27.796Z,66.20
2018-05-18T05:12:55.330Z,66.10
2018-05-18T05:15:22.840Z,65.90
2018-05-18T05:17:51.236Z,65.30
2018-05-18T05:20:18.680Z,65.20
2018-05-18T05:22:46.218Z,65.30
2018-05-18T05:25:13.731Z,65.40
2018-05-18T05:27:41.320Z,65.40
2018-05-18T05:30:09.611Z,65.20
2018-05-18T05:32:39.299Z,65.20
2018-05-18T05:35:07.617Z,65.30
2018-05-18T05:37:35.893Z,64.80
2018-05-18T05:40:03.443Z,64.80
2018-05-18T05:42:30.945Z,64.70
2018-05-18T05:44:59.253Z,64.30
2018-05-18T05:47:26.840Z,64.30
2018-05-18T05:49:54.389Z,64.00
2018-05-18T05:52:22.663Z,64.00
2018-05-18T05:54:50.281Z,64.00
2018-05-18T05:57:17.833Z,63.60
2018-05-18T05:59:45.331Z,63.60
2018-05-18T06:02:12.872Z,63.70
2018-05-18T06:04:41.032Z,63.70
2018-05-18T06:07:08.676Z,63.40
2018-05-18T06:09:36.990Z,63.30
2018-05-18T06:12:04.614Z,63.10
2018-05-18T06:14:32.951Z,62.50
2018-05-18T06:17:01.352Z,62.90
2018-05-18T06:19:29.822Z,62.50
2018-05-18T06:21:58.159Z,62.60
2018-05-18T06:24:25.783Z,62.40
2018-05-18T06:26:53.286Z,62.80
2018-05-18T06:29:20.897Z,62.60
2018-05-18T06:31:48.489Z,62.50
2018-05-18T06:34:16.029Z,62.60
2018-05-18T06:36:43.557Z,62.80
2018-05-18T06:39:11.030Z,63.20
2018-05-18T06:41:39.356Z,62.80
2018-05-18T06:44:06.863Z,62.70
2018-05-18T06:46:34.391Z,62.70
2018-05-18T06:49:01.949Z,62.70
2018-05-18T06:51:30.222Z,62.20
2018-05-18T06:53:58.606Z,61.50
2018-05-18T06:56:26.896Z,61.50
2018-05-18T06:58:55.351Z,61.30
2018-05-18T07:01:22.874Z,61.30
2018-05-18T07:03:51.228Z,61.30
2018-05-18T07:06:18.930Z,61.30
2018-05-18T07:08:47.357Z,61.30
2018-05-18T07:11:14.902Z,61.30
2018-05-18T07:13:42.421Z,61.40
2018-05-18T07:16:10.234Z,61.50
2018-05-18T07:18:38.774Z,61.00
2018-05-18T07:21:06.303Z,61.00
2018-05-18T07:23:34.583Z,60.80
2018-05-18T07:26:02.184Z,60.80
2018-05-18T07:28:29.736Z,60.80
2018-05-18T07:30:58.020Z,60.10
2018-05-18T07:33:26.415Z,60.20
2018-05-18T07:35:54.714Z,60.00
2018-05-18T07:38:23.107Z,60.20
2018-05-18T07:40:51.391Z,60.10
2018-05-18T07:43:19.710Z,60.40
2018-05-18T07:45:47.205Z,60.20
2018-05-18T07:48:14.840Z,60.00
2018-05-18T07:50:42.385Z,59.80
2018-05-18T07:53:10.908Z,59.50
2018-05-18T07:55:38.598Z,59.30
2018-05-18T07:58:06.088Z,59.10
2018-05-18T08:00:33.727Z,58.90
2018-05-18T08:03:01.258Z,58.90
2018-05-18T08:05:28.801Z,58.50
2018-05-18T08:07:56.368Z,58.60
2018-05-18T08:10:23.978Z,58.20
2018-05-18T08:12:52.257Z,58.10
2018-05-18T08:15:19.867Z,58.00
2018-05-18T08:17:47.426Z,57.90
2018-05-18T08:20:15.708Z,57.80
2018-05-18T08:22:43.967Z,57.90
2018-05-18T08:25:11.590Z,57.90
2018-05-18T08:27:39.205Z,57.60
2018-05-18T08:30:06.691Z,57.00
2018-05-18T08:32:35.733Z,57.60
2018-05-18T08:35:03.345Z,57.60
2018-05-18T08:37:30.853Z,57.20
2018-05-18T08:39:59.277Z,56.80
2018-05-18T08:42:27.577Z,56.50
2018-05-18T08:44:55.111Z,56.50
2018-05-18T08:47:22.790Z,56.60
2018-05-18T08:49:50.304Z,56.20
2018-05-18T08:52:18.601Z,57.00
2018-05-18T08:54:46.113Z,57.00
2018-05-18T08:57:13.623Z,56.40
2018-05-18T08:59:42.021Z,56.60
2018-05-18T09:02:10.271Z,56.90
2018-05-18T09:04:37.826Z,56.80
2018-05-18T09:07:05.467Z,56.60
2018-05-18T09:09:33.013Z,56.80
2018-05-18T09:12:01.392Z,56.90
2018-05-18T09:14:29.696Z,56.90
2018-05-18T09:16:57.959Z,57.00
2018-05-18T09:19:25.625Z,56.90
2018-05-18T09:21:53.229Z,56.40
2018-05-18T09:24:21.124Z,56.40
2018-05-18T09:26:48.962Z,56.80
2018-05-18T09:29:16.549Z,56.90
2018-05-18T09:31:44.156Z,57.10
2018-05-18T09:34:11.661Z,57.10
2018-05-18T09:36:39.274Z,57.10
2018-05-18T09:39:07.644Z,57.00
2018-05-18T09:41:35.152Z,56.90
2018-05-18T09:44:02.703Z,57.10
2018-05-18T09:46:31.000Z,57.10
2018-05-18T09:48:58.582Z,57.10
2018-05-18T09:51:26.080Z,56.90
2018-05-18T09:53:53.694Z,57.00
2018-05-18T09:56:21.283Z,56.90
2018-05-18T09:58:49.549Z,57.00
2018-05-18T10:01:17.091Z,57.00
2018-05-18T10:03:44.587Z,56.80
2018-05-18T10:06:12.103Z,56.60
2018-05-18T10:08:40.375Z,56.60
2018-05-18T10:11:07.920Z,56.50
2018-05-18T10:13:35.545Z,56.30
2018-05-18T10:16:03.898Z,56.00
2018-05-18T10:18:31.438Z,56.00
2018-05-18T10:20:59.657Z,56.00
2018-05-18T10:23:27.264Z,55.90
2018-05-18T10:25:55.535Z,56.40
2018-05-18T10:28:27.730Z,55.80
2018-05-18T10:30:55.288Z,55.90
2018-05-18T10:33:22.926Z,56.40
2018-05-18T10:35:50.471Z,55.80
2018-05-18T10:38:18.034Z,55.60
2018-05-18T10:40:46.385Z,54.70
2018-05-18T10:43:13.931Z,54.70
2018-05-18T10:45:41.463Z,54.20
2018-05-18T10:48:08.981Z,53.80
2018-05-18T10:50:36.497Z,53.80
2018-05-18T10:53:04.035Z,53.60
2018-05-18T10:55:31.589Z,53.20
2018-05-18T10:57:59.148Z,53.10
2018-05-18T11:00:26.655Z,52.90
2018-05-18T11:02:54.225Z,52.70
2018-05-18T11:05:21.860Z,52.70
2018-05-18T11:07:49.487Z,52.50
2018-05-18T11:10:17.012Z,52.60
2018-05-18T11:12:44.608Z,52.40
2018-05-18T11:15:12.185Z,52.70
2018-05-18T11:17:39.725Z,52.50
2018-05-18T11:20:07.339Z,52.20
2018-05-18T11:22:35.070Z,52.30
2018-05-18T11:25:02.605Z,52.10
2018-05-18T11:27:30.222Z,51.90
2018-05-18T11:29:57.797Z,52.10
2018-05-18T11:32:25.304Z,51.90
2018-05-18T11:34:52.841Z,51.80
2018-05-18T11:37:20.671Z,51.90
2018-05-18T11:39:48.160Z,51.90
2018-05-18T11:42:16.459Z,51.80
2018-05-18T11:44:44.140Z,51.80
2018-05-18T11:47:12.464Z,51.80
2018-05-18T11:49:39.948Z,51.70
2018-05-18T11:52:07.509Z,51.60
2018-05-18T11:54:35.056Z,51.80
2018-05-18T11:57:02.715Z,51.70
2018-05-18T11:59:30.272Z,52.30
2018-05-18T12:01:58.558Z,52.50
2018-05-18T12:04:26.935Z,52.40
2018-05-18T12:06:54.510Z,52.40
2018-05-18T12:09:22.833Z,52.40
2018-05-18T12:11:50.396Z,52.40
2018-05-18T12:14:17.943Z,52.50
2018-05-18T12:16:46.272Z,52.20
2018-05-18T12:19:13.850Z,52.10
2018-05-18T12:21:41.408Z,51.80
2018-05-18T12:24:08.981Z,51.30
2018-05-18T12:26:36.591Z,51.70
2018-05-18T12:29:04.271Z,51.80
2018-05-18T12:31:31.893Z,52.10
2018-05-18T12:33:59.466Z,52.30
2018-05-18T12:36:27.031Z,52.30
2018-05-18T12:38:54.591Z,52.60
2018-05-18T12:41:22.886Z,52.70
2018-05-18T12:43:51.308Z,52.90
2018-05-18T12:46:18.858Z,52.90
2018-05-18T12:48:46.430Z,53.70
2018-05-18T12:51:13.952Z,53.10
2018-05-18T12:53:41.585Z,53.40
2018-05-18T12:56:09.143Z,53.40
2018-05-18T12:58:36.666Z,53.60
2018-05-18T13:01:04.311Z,53.60
2018-05-18T13:03:31.807Z,53.80
2018-05-18T13:05:59.378Z,53.80
2018-05-18T13:08:26.880Z,53.80
2018-05-18T13:10:55.152Z,53.80
2018-05-18T13:13:22.668Z,53.70
2018-05-18T13:15:50.187Z,53.70
2018-05-18T13:18:17.883Z,53.80
2018-05-18T13:20:46.166Z,54.30
2018-05-18T13:23:13.688Z,54.30
2018-05-18T13:25:41.246Z,54.20
2018-05-18T13:28:08.939Z,54.20
2018-05-18T13:30:37.426Z,54.10
2018-05-18T13:33:05.319Z,53.90
2018-05-18T13:35:33.102Z,54.10
2018-05-18T13:38:00.607Z,53.80
2018-05-18T13:40:28.914Z,53.80
2018-05-18T13:42:56.409Z,53.70
2018-05-18T13:45:24.073Z,53.50
2018-05-18T13:47:51.628Z,53.40
2018-05-18T13:50:19.188Z,53.30
2018-05-18T13:52:47.479Z,53.50
2018-05-18T13:55:15.172Z,53.40
2018-05-18T13:57:42.784Z,53.50
2018-05-18T14:00:10.395Z,53.60
2018-05-18T14:02:38.676Z,53.40
2018-05-18T14:05:06.993Z,53.40
2018-05-18T14:07:34.535Z,53.40
2018-05-18T14:10:02.802Z,53.50
2018-05-18T14:12:30.402Z,53.50
2018-05-18T14:14:58.704Z,53.80
2018-05-18T14:17:26.270Z,53.80
2018-05-18T14:19:54.637Z,54.10
2018-05-18T14:22:22.164Z,54.10
2018-05-18T14:24:49.697Z,54.00
2018-05-18T14:27:17.992Z,53.70
2018-05-18T14:29:45.650Z,53.70
2018-05-18T14:32:13.966Z,54.10
2018-05-18T14:34:41.543Z,54.00
2018-05-18T14:37:09.068Z,54.10
2018-05-18T14:39:36.766Z,54.00
2018-05-18T14:42:05.061Z,54.30
2018-05-18T14:44:32.579Z,54.30
2018-05-18T14:47:00.122Z,54.10
2018-05-18T14:49:27.783Z,54.50
2018-05-18T14:51:55.372Z,54.60
2018-05-18T14:54:22.913Z,54.80
2018-05-18T14:56:51.210Z,54.90
2018-05-18T14:59:18.729Z,54.80
2018-05-18T15:01:46.358Z,54.90
2018-05-18T15:04:13.857Z,54.90
2018-05-18T15:06:41.599Z,55.00
2018-05-18T15:09:09.180Z,55.20
2018-05-18T15:11:36.841Z,55.10
2018-05-18T15:14:05.136Z,55.30
2018-05-18T15:16:32.677Z,55.30
2018-05-18T15:19:00.177Z,55.50
2018-05-18T15:21:27.682Z,55.30
2018-05-18T15:23:55.253Z,55.50
2018-05-18T15:26:22.749Z,55.90
2018-05-18T15:28:50.378Z,55.90
2018-05-18T15:31:17.926Z,56.00
2018-05-18T15:33:46.330Z,55.90
2018-05-18T15:36:13.899Z,55.90
2018-05-18T15:38:42.235Z,56.40
2018-05-18T15:41:09.773Z,56.40
2018-05-18T15:43:38.200Z,57.30
2018-05-18T15:46:06.614Z,56.60
2018-05-18T15:48:34.975Z,56.50
2018-05-18T15:51:03.172Z,56.40
2018-05-18T15:53:30.695Z,56.70
2018-05-18T15:55:58.281Z,56.70
2018-05-18T15:58:26.003Z,56.90
2018-05-18T16:00:53.621Z,57.10
2018-05-18T16:03:21.937Z,57.90
2018-05-18T16:05:51.053Z,58.10
2018-05-18T16:08:18.664Z,58.10
2018-05-18T16:10:46.187Z,57.90
2018-05-18T16:13:13.688Z,57.90
2018-05-18T16:15:41.227Z,58.10
2018-05-18T16:18:08.794Z,58.40
2018-05-18T16:20:36.432Z,58.50
2018-05-18T16:23:04.405Z,58.40
2018-05-18T16:25:31.897Z,58.30
2018-05-18T16:28:00.311Z,58.20
2018-05-18T16:30:27.834Z,58.20
2018-05-18T16:32:55.379Z,58.60
2018-05-18T16:35:23.686Z,58.80
2018-05-18T16:37:51.241Z,58.80
2018-05-18T16:40:18.757Z,59.00
2018-05-18T16:42:47.046Z,59.20
2018-05-18T16:45:14.573Z,59.10
2018-05-18T16:47:42.158Z,59.20
2018-05-18T16:50:09.893Z,59.10
2018-05-18T16:52:38.949Z,59.30
2018-05-18T16:55:07.267Z,59.40
2018-05-18T16:57:34.813Z,59.40
2018-05-18T17:00:03.142Z,59.50
2018-05-18T17:02:30.689Z,59.50
2018-05-18T17:04:58.273Z,59.40
2018-05-18T17:07:25.807Z,59.30
2018-05-18T17:09:54.372Z,59.50
2018-05-18T17:12:22.105Z,59.40
2018-05-18T17:14:49.570Z,59.40
2018-05-18T17:17:17.296Z,59.30
2018-05-18T17:19:44.885Z,59.40
2018-05-18T17:22:12.368Z,59.60
2018-05-18T17:24:39.867Z,59.50
2018-05-18T17:27:07.477Z,59.60
2018-05-18T17:29:34.957Z,59.90
2018-05-18T17:32:02.563Z,59.20
2018-05-18T17:34:30.971Z,59.20
2018-05-18T17:36:58.495Z,59.20
2018-05-18T17:39:26.044Z,59.50
2018-05-18T17:41:53.546Z,59.50
2018-05-18T17:44:21.852Z,59.90
2018-05-18T17:46:50.270Z,60.10
2018-05-18T17:49:17.805Z,60.20
2018-05-18T17:51:46.063Z,60.50
2018-05-18T17:54:13.596Z,60.40
2018-05-18T17:56:41.096Z,60.10
2018-05-18T17:59:08.657Z,60.70
2018-05-18T18:01:36.201Z,60.90
2018-05-18T18:04:03.769Z,60.60
2018-05-18T18:06:31.447Z,61.20
2018-05-18T18:08:58.995Z,60.60
2018-05-18T18:11:27.320Z,60.90
2018-05-18T18:13:54.893Z,60.90
2018-05-18T18:16:22.550Z,61.00
2018-05-18T18:18:50.888Z,61.30
2018-05-18T18:21:18.426Z,60.80
2018-05-18T18:23:45.984Z,61.10
2018-05-18T18:26:13.569Z,61.10
2018-05-18T18:28:41.206Z,61.80
2018-05-18T18:31:08.672Z,61.80
2018-05-18T18:33:36.992Z,61.60
2018-05-18T18:36:04.491Z,61.60
2018-05-18T18:38:32.020Z,62.00
2018-05-18T18:41:00.293Z,62.20
2018-05-18T18:43:27.970Z,62.20
2018-05-18T18:45:55.514Z,62.50
2018-05-18T18:48:23.078Z,62.60
2018-05-18T18:50:50.621Z,62.90
2018-05-18T18:53:18.138Z,62.10
2018-05-18T18:55:45.686Z,62.00
2018-05-18T18:58:13.217Z,61.80
2018-05-18T19:00:40.797Z,62.30
2018-05-18T19:03:09.181Z,63.50
2018-05-18T19:05:37.495Z,63.80
2018-05-18T19:08:05.081Z,63.80
2018-05-18T19:10:32.627Z,63.90
2018-05-18T19:13:00.930Z,64.40
2018-05-18T19:15:28.461Z,64.20
2018-05-18T19:17:56.017Z,64.20
2018-05-18T19:20:23.557Z,63.30
2018-05-18T19:22:51.427Z,63.30
2018-05-18T19:25:19.831Z,64.20
2018-05-18T19:27:47.650Z,64.10
2018-05-18T19:30:15.229Z,64.40
2018-05-18T19:32:42.744Z,64.50
2018-05-18T19:35:10.272Z,64.50
2018-05-18T19:37:37.800Z,65.20
2018-05-18T19:40:05.438Z,64.40
2018-05-18T19:42:32.969Z,64.20
2018-05-18T19:45:00.518Z,64.90
2018-05-18T19:47:28.053Z,63.90
2018-05-18T19:49:55.618Z,64.70
2018-05-18T19:52:23.109Z,64.90
2018-05-18T19:54:50.629Z,64.30
2018-05-18T19:57:19.676Z,64.40
2018-05-18T19:59:47.216Z,64.40
2018-05-18T20:02:14.824Z,64.90
2018-05-18T20:04:42.351Z,64.20
2018-05-18T20:07:09.922Z,65.00
2018-05-18T20:09:37.538Z,65.40
2018-05-18T20:12:05.064Z,65.60
2018-05-18T20:14:32.666Z,65.40
2018-05-18T20:17:00.947Z,66.00
2018-05-18T20:19:29.277Z,65.50
2018-05-18T20:21:56.813Z,65.50
2018-05-18T20:24:25.125Z,66.40
2018-05-18T20:26:52.685Z,66.40
2018-05-18T20:29:20.253Z,66.70
2018-05-18T20:31:47.918Z,66.80
2018-05-18T20:34:16.220Z,65.70
2018-05-18T20:36:43.821Z,65.70
2018-05-18T20:39:11.428Z,67.30
2018-05-18T20:41:39.790Z,67.20
2018-05-18T20:44:07.354Z,67.10
2018-05-18T20:46:34.910Z,67.60
2018-05-18T20:49:02.484Z,67.00
2018-05-18T20:51:30.032Z,67.30
2018-05-18T20:53:58.305Z,68.30
2018-05-18T20:56:26.617Z,66.00
2018-05-18T20:58:54.215Z,66.00
2018-05-18T21:01:21.733Z,67.80
2018-05-18T21:03:50.155Z,68.60
2018-05-18T21:06:17.724Z,68.60
2018-05-18T21:08:45.614Z,68.90
2018-05-18T21:11:13.219Z,69.00
2018-05-18T21:13:40.803Z,69.10
2018-05-18T21:16:08.341Z,69.40
2018-05-18T21:18:36.009Z,69.40
2018-05-18T21:21:03.671Z,69.60
2018-05-18T21:23:31.241Z,70.00
2018-05-18T21:25:58.804Z,70.00
2018-05-18T21:28:26.355Z,70.10
2018-05-18T21:30:54.715Z,70.70
2018-05-18T21:33:22.381Z,70.70
2018-05-18T21:35:50.051Z,71.10
2018-05-18T21:38:17.637Z,72.10
2018-05-18T21:40:45.194Z,72.00
2018-05-18T21:43:12.790Z,72.30
2018-05-18T21:45:40.364Z,72.70
2018-05-18T21:48:07.995Z,73.00
2018-05-18T21:50:35.524Z,73.20
2018-05-18T21:53:03.845Z,73.50
2018-05-18T21:55:31.364Z,73.40
2018-05-18T21:57:59.024Z,73.50
2018-05-18T22:00:27.167Z,73.60
2018-05-18T22:02:54.751Z,73.60
2018-05-18T22:05:22.415Z,73.50
2018-05-18T22:07:49.932Z,73.30
2018-05-18T22:10:17.549Z,73.40
2018-05-18T22:12:45.611Z,73.50
2018-05-18T22:15:14.867Z,73.70
2018-05-18T22:17:42.417Z,74.00
2018-05-18T22:20:09.977Z,74.00
2018-05-18T22:22:38.405Z,74.20
2018-05-18T22:25:05.913Z,74.20
2018-05-18T22:27:34.243Z,74.40
2018-05-18T22:30:01.765Z,74.40
2018-05-18T22:32:29.296Z,74.40
2018-05-18T22:34:56.830Z,74.60
2018-05-18T22:37:24.613Z,74.60
2018-05-18T22:39:53.011Z,74.70
2018-05-18T22:42:20.544Z,74.70
2018-05-18T22:44:48.132Z,74.70
2018-05-18T22:47:16.442Z,74.60
2018-05-18T22:49:45.538Z,74.60
2018-05-18T22:52:13.833Z,74.80
2018-05-18T22:54:42.113Z,74.80
2018-05-18T22:57:09.643Z,74.80
2018-05-18T22:59:37.175Z,74.90
2018-05-18T23:02:04.712Z,74.80
2018-05-18T23:04:32.400Z,75.00
2018-05-18T23:06:59.960Z,74.90
2018-05-18T23:09:27.492Z,75.70
2018-05-18T23:11:55.029Z,75.20
2018-05-18T23:14:22.590Z,75.30
2018-05-18T23:16:50.259Z,75.30
2018-05-18T23:19:18.571Z,75.60
2018-05-18T23:21:46.134Z,75.60
2018-05-18T23:24:14.539Z,75.80
2018-05-18T23:26:42.127Z,75.70
2018-05-18T23:29:09.731Z,75.70
2018-05-18T23:31:37.315Z,75.70
2018-05-18T23:34:05.735Z,76.00
2018-05-18T23:36:33.248Z,76.00
2018-05-18T23:39:00.773Z,76.00
2018-05-18T23:41:29.080Z,76.20
2018-05-18T23:43:56.694Z,76.20
2018-05-18T23:46:24.227Z,76.30
2018-05-18T23:48:51.800Z,76.30
2018-05-18T23:51:19.354Z,76.50
2018-05-18T23:53:47.731Z,76.50
2018-05-18T23:56:16.151Z,76.60
2018-05-18T23:58:43.670Z,76.50
